Time;durP1;ratioP1;P1;durP2;ratioP2;P2;SDS_P1;SDS_P2;PMS_P1;PMS_P2;Temp;Humidity;BMP_temperature;BMP_pressure;BME280_temperature;BME280_humidity;BME280_pressure;Samples;Min_cycle;Max_cycle;Signal;HPM_P1;HPM_P2
2023/04/27 00:01:16;;;;;;;4.40;2.00;;;;;;;6.83;59.57;99926.66;4484837;31;20129;-90
2023/04/27 00:03:41;;;;;;;3.87;1.48;;;;;;;6.69;59.56;99929.44;4482609;32;20160;-90
2023/04/27 00:06:07;;;;;;;3.75;1.77;;;;;;;6.69;59.56;99927.72;4479799;32;20144;-90
2023/04/27 00:08:32;;;;;;;4.43;2.08;;;;;;;6.70;59.56;99929.41;4482649;32;20492;-90
2023/04/27 00:10:58;;;;;;;4.05;1.70;;;;;;;6.76;59.56;99933.66;4482520;32;20080;-89
2023/04/27 00:13:23;;;;;;;6.00;1.90;;;;;;;6.79;59.56;99928.41;4470019;32;20149;-90
2023/04/27 00:15:49;;;;;;;4.50;1.92;;;;;;;6.84;59.57;99925.75;4472970;31;20441;-89
2023/04/27 00:18:15;;;;;;;11.12;2.50;;;;;;;6.71;59.56;99935.44;4485092;31;20597;-90
2023/04/27 00:20:40;;;;;;;4.45;1.80;;;;;;;6.76;59.57;99929.31;4471326;31;20107;-90
2023/04/27 00:23:06;;;;;;;3.97;1.90;;;;;;;6.76;59.56;99933.66;4468870;32;20183;-90
2023/04/27 00:25:31;;;;;;;6.07;2.47;;;;;;;6.73;59.57;99931.09;4466271;31;20101;-90
2023/04/27 00:27:56;;;;;;;3.40;1.73;;;;;;;6.86;59.57;99931.78;4469061;32;20179;-90
2023/04/27 00:30:22;;;;;;;4.50;1.85;;;;;;;6.99;59.58;99934.19;4481958;31;20128;-90
2023/04/27 00:32:47;;;;;;;3.65;2.05;;;;;;;7.09;59.59;99925.37;4469008;32;20147;-89
2023/04/27 00:35:13;;;;;;;4.25;2.20;;;;;;;6.83;59.57;99930.09;4472864;31;23053;-88
2023/04/27 00:37:38;;;;;;;4.85;2.10;;;;;;;6.70;59.56;99925.97;4492067;31;20119;-89
2023/04/27 00:40:06;;;;;;;4.68;2.20;;;;;;;6.50;59.54;99927.97;4468091;31;20377;-89
2023/04/27 00:42:32;;;;;;;4.00;2.10;;;;;;;6.59;59.56;99927.84;4471601;32;20104;-89
2023/04/27 00:44:57;;;;;;;4.15;1.83;;;;;;;6.63;59.55;99930.38;4470770;31;20439;-89
2023/04/27 00:47:23;;;;;;;4.90;2.17;;;;;;;6.43;59.55;99922.03;4486756;31;20112;-90
2023/04/27 00:49:49;;;;;;;4.53;2.37;;;;;;;6.40;59.54;99928.09;4484315;31;20122;-89
2023/04/27 00:52:14;;;;;;;6.22;1.98;;;;;;;6.57;59.55;99932.16;4483834;32;20850;-89
2023/04/27 00:54:39;;;;;;;4.95;2.37;;;;;;;6.56;59.55;99920.13;4483406;31;27665;-89
2023/04/27 00:57:05;;;;;;;3.35;2.00;;;;;;;6.25;59.53;99935.16;4465515;31;20092;-88
2023/04/27 00:59:30;;;;;;;5.03;2.22;;;;;;;6.25;59.53;99928.25;4473134;31;21666;-90
2023/04/27 01:01:56;;;;;;;4.15;1.87;;;;;;;6.01;59.52;99931.97;4486642;31;20126;-89
2023/04/27 01:04:22;;;;;;;5.30;2.12;;;;;;;5.99;59.52;99927.69;4484079;31;20481;-90
2023/04/27 01:06:47;;;;;;;3.67;1.87;;;;;;;6.06;59.53;99925.00;4478386;31;20397;-90
2023/04/27 01:09:13;;;;;;;2.92;1.87;;;;;;;6.06;59.52;99929.34;4470728;31;20099;-88
2023/04/27 01:11:38;;;;;;;4.12;2.35;;;;;;;6.04;59.52;99931.94;4458003;32;20137;-89
2023/04/27 01:14:04;;;;;;;4.60;1.90;;;;;;;6.10;59.53;99923.25;4483565;31;24992;-90
2023/04/27 01:16:31;;;;;;;7.12;2.10;;;;;;;6.04;59.52;99928.50;4484123;32;20100;-89
2023/04/27 01:18:57;;;;;;;5.15;2.28;;;;;;;6.03;59.52;99926.78;4467447;31;20566;-90
2023/04/27 01:21:22;;;;;;;4.05;2.00;;;;;;;6.11;59.52;99932.72;4484012;32;20077;-89
2023/04/27 01:23:47;;;;;;;4.22;2.58;;;;;;;6.02;59.52;99933.69;4470743;31;20136;-90
2023/04/27 01:26:15;;;;;;;6.62;2.50;;;;;;;6.04;59.52;99936.25;4464738;31;22098;-89
2023/04/27 01:28:41;;;;;;;4.93;2.37;;;;;;;6.01;59.52;99944.88;4461388;31;20213;-90
2023/04/27 01:31:06;;;;;;;6.43;2.08;;;;;;;5.85;59.51;99943.28;4478583;31;20092;-89
2023/04/27 01:33:32;;;;;;;7.35;2.30;;;;;;;5.63;59.50;99941.78;4471248;31;20445;-90
2023/04/27 01:35:57;;;;;;;4.35;2.12;;;;;;;5.64;59.50;99946.94;4465441;31;20213;-90
2023/04/27 01:38:23;;;;;;;7.43;2.25;;;;;;;5.60;59.49;99945.25;4486997;31;20421;-89
2023/04/27 01:40:48;;;;;;;4.93;2.10;;;;;;;5.45;59.49;99953.13;4486957;31;20381;-89
2023/04/27 01:43:14;;;;;;;4.80;2.08;;;;;;;5.41;59.49;99952.28;4486608;31;20092;-88
2023/04/27 01:45:39;;;;;;;6.15;2.37;;;;;;;5.56;59.49;99966.81;4478903;32;20096;-89
2023/04/27 01:48:05;;;;;;;4.12;1.85;;;;;;;5.57;59.49;99962.50;4467850;31;20138;-89
2023/04/27 01:50:30;;;;;;;2.97;1.73;;;;;;;5.50;59.49;99965.13;4477724;31;20083;-89
2023/04/27 01:52:55;;;;;;;2.90;2.15;;;;;;;5.47;59.49;99965.16;4470743;31;20162;-89
2023/04/27 01:55:21;;;;;;;5.37;2.00;;;;;;;5.52;59.49;99955.66;4477514;31;20142;-89
2023/04/27 01:57:46;;;;;;;4.95;2.00;;;;;;;5.33;59.48;99966.12;4470482;31;20396;-88
2023/04/27 02:00:12;;;;;;;3.92;2.37;;;;;;;5.33;59.48;99966.12;4483947;32;20080;-89
2023/04/27 02:02:38;;;;;;;4.70;2.22;;;;;;;5.35;59.48;99956.63;4483563;31;20128;-90
2023/04/27 02:05:03;;;;;;;6.07;2.30;;;;;;;5.28;59.47;99955.84;4470994;32;20398;-88
2023/04/27 02:07:29;;;;;;;5.93;2.42;;;;;;;5.17;59.48;99962.78;4483787;31;20610;-88
2023/04/27 02:09:54;;;;;;;6.55;2.58;;;;;;;5.23;59.47;99963.63;4483737;32;20144;-90
2023/04/27 02:12:20;;;;;;;5.30;2.30;;;;;;;5.37;59.48;99963.50;4470766;31;20145;-89
2023/04/27 02:14:45;;;;;;;4.35;2.40;;;;;;;5.18;59.47;99960.19;4470891;32;20151;-89
2023/04/27 02:17:11;;;;;;;5.37;2.40;;;;;;;5.17;59.48;99971.37;4480883;31;20121;-89
2023/04/27 02:19:36;;;;;;;5.20;2.75;;;;;;;5.21;59.47;99972.25;4483399;32;20152;-88
2023/04/27 02:22:02;;;;;;;3.90;2.12;;;;;;;5.12;59.47;99973.13;4470008;31;21831;-88
2023/04/27 02:24:27;;;;;;;6.07;2.90;;;;;;;5.40;59.49;99965.19;4476661;31;20126;-89
2023/04/27 02:26:53;;;;;;;7.10;2.80;;;;;;;5.28;59.47;99968.75;4485526;31;29327;-88
2023/04/27 02:29:18;;;;;;;5.43;2.70;;;;;;;5.13;59.47;99972.28;4483507;32;20104;-90
2023/04/27 02:31:43;;;;;;;4.40;2.20;;;;;;;5.10;59.47;99980.03;4470428;31;20132;-88
2023/04/27 02:34:09;;;;;;;4.60;2.58;;;;;;;5.23;59.47;99975.66;4483731;32;20119;-88
2023/04/27 02:36:34;;;;;;;4.47;2.28;;;;;;;5.31;59.49;99979.03;4469724;31;32567;-88
2023/04/27 02:39:00;;;;;;;5.05;2.45;;;;;;;5.02;59.46;99984.41;4476141;31;20080;-89
2023/04/27 02:41:27;;;;;;;7.68;3.47;;;;;;;4.99;59.46;99987.00;4475425;31;20440;-88
2023/04/27 02:43:52;;;;;;;7.62;2.75;;;;;;;5.06;59.47;99993.81;4484016;32;20440;-88
2023/04/27 02:46:18;;;;;;;5.68;2.78;;;;;;;5.03;59.47;99991.25;4469840;31;26880;-90
2023/04/27 02:48:43;;;;;;;4.57;2.75;;;;;;;4.88;59.46;99991.34;4457347;32;20146;-89
2023/04/27 02:51:08;;;;;;;3.62;2.47;;;;;;;4.70;59.44;99997.44;4484998;31;20140;-89
2023/04/27 02:53:34;;;;;;;5.32;2.75;;;;;;;4.89;59.46;99988.75;4485139;31;20186;-92
2023/04/27 02:56:00;;;;;;;5.47;2.50;;;;;;;4.79;59.46;99984.53;4458330;31;20160;-90
2023/04/27 02:58:25;;;;;;;10.75;2.90;;;;;;;4.59;59.45;99996.62;4460694;32;20132;-92
2023/04/27 03:00:55;;;;;;;4.03;2.47;;;;;;;4.65;59.45;99999.19;4478995;31;27505;-91
2023/04/27 03:03:21;;;;;;;8.00;2.85;;;;;;;4.62;59.44;100001.78;4471033;32;20103;-90
2023/04/27 03:05:46;;;;;;;8.30;2.42;;;;;;;4.68;59.45;100013.78;4483477;32;20088;-91
2023/04/27 03:08:12;;;;;;;3.83;2.62;;;;;;;4.88;59.46;100002.50;4476760;31;20107;-91
2023/04/27 03:10:37;;;;;;;4.18;2.35;;;;;;;5.00;59.46;100001.59;4474280;31;25133;-90
2023/04/27 03:13:02;;;;;;;6.70;2.58;;;;;;;4.94;59.46;99997.31;4475759;31;27769;-89
2023/04/27 03:15:28;;;;;;;7.43;2.87;;;;;;;4.84;59.45;99999.97;4473990;31;22520;-88
2023/04/27 03:17:53;;;;;;;4.65;2.75;;;;;;;4.64;59.44;100012.94;4470076;32;20163;-88
2023/04/27 03:20:20;;;;;;;6.12;2.78;;;;;;;4.50;59.44;100007.00;4464950;31;20181;-88
2023/04/27 03:22:46;;;;;;;5.50;2.85;;;;;;;4.53;59.43;100013.00;4470252;32;20100;-88
2023/04/27 03:25:11;;;;;;;5.57;2.42;;;;;;;4.32;59.42;100015.62;4484512;31;20161;-90
2023/04/27 03:27:36;;;;;;;6.03;3.05;;;;;;;4.40;59.42;100016.44;4473361;32;20457;-89
2023/04/27 03:30:03;;;;;;;5.43;2.70;;;;;;;4.17;59.41;100018.22;4469112;32;32229;-90
2023/04/27 03:32:28;;;;;;;5.07;2.50;;;;;;;4.39;59.42;100019.87;4483189;32;20130;-89
2023/04/27 03:34:55;;;;;;;6.30;2.87;;;;;;;4.47;59.43;100014.72;4484362;31;20088;-89
2023/04/27 03:37:20;;;;;;;3.97;2.67;;;;;;;4.47;59.43;100025.88;4457134;32;20092;-90
2023/04/27 03:39:46;;;;;;;6.18;2.85;;;;;;;4.35;59.43;100023.34;4469693;31;20148;-89
2023/04/27 03:42:11;;;;;;;6.93;2.95;;;;;;;4.37;59.43;100026.78;4456961;32;20093;-90
2023/04/27 03:44:36;;;;;;;7.57;3.17;;;;;;;4.58;59.44;100024.13;4467256;31;20104;-89
2023/04/27 03:47:02;;;;;;;6.93;2.97;;;;;;;4.63;59.44;100026.69;4471914;31;27621;-89
2023/04/27 03:49:28;;;;;;;4.87;2.50;;;;;;;4.54;59.43;100032.75;4487731;31;20510;-89
2023/04/27 03:51:53;;;;;;;7.57;3.08;;;;;;;4.66;59.44;100029.25;4474853;31;20468;-87
2023/04/27 03:54:18;;;;;;;7.30;3.17;;;;;;;4.67;59.44;100033.53;4487774;31;20144;-88
2023/04/27 03:56:44;;;;;;;7.47;3.33;;;;;;;4.62;59.44;100036.16;4469133;32;22610;-90
2023/04/27 03:59:09;;;;;;;8.90;3.08;;;;;;;4.65;59.44;100035.28;4456649;32;20127;-89
2023/04/27 04:01:36;;;;;;;10.38;3.05;;;;;;;4.45;59.43;100034.47;4474757;31;20136;-90
2023/04/27 04:04:01;;;;;;;4.30;2.62;;;;;;;4.51;59.43;100037.91;4485488;31;20106;-89
2023/04/27 04:06:27;;;;;;;4.75;2.33;;;;;;;4.46;59.43;100039.63;4482549;31;20100;-90
2023/04/27 04:08:53;;;;;;;5.35;2.53;;;;;;;4.49;59.44;100044.75;4483450;32;20104;-88
2023/04/27 04:11:18;;;;;;;3.85;2.70;;;;;;;4.56;59.43;100038.75;4484577;32;20100;-89
2023/04/27 04:13:43;;;;;;;7.22;3.37;;;;;;;4.61;59.44;100043.87;4471366;32;24914;-89
2023/04/27 04:16:09;;;;;;;7.78;2.95;;;;;;;4.77;59.44;100049.88;4484463;31;20156;-88
2023/04/27 04:18:35;;;;;;;6.55;3.47;;;;;;;4.87;59.46;100051.53;4459776;31;20120;-89
2023/04/27 04:21:00;;;;;;;6.65;2.75;;;;;;;5.01;59.47;100052.34;4465130;31;20130;-88
2023/04/27 04:23:26;;;;;;;8.43;3.55;;;;;;;5.22;59.47;100051.38;4490908;31;20620;-88
2023/04/27 04:25:53;;;;;;;6.37;3.15;;;;;;;5.31;59.48;100053.91;4484638;31;20104;-89
2023/04/27 04:28:18;;;;;;;5.18;2.50;;;;;;;5.57;59.49;100053.72;4484581;32;20109;-89
2023/04/27 04:30:44;;;;;;;5.32;2.33;;;;;;;5.46;59.48;100050.37;4484330;32;20415;-87
2023/04/27 04:33:09;;;;;;;7.78;2.42;;;;;;;5.54;59.49;100056.34;4484496;32;20127;-89
2023/04/27 04:35:38;;;;;;;4.43;2.35;;;;;;;5.51;59.49;100054.63;4475833;31;35095;-88
2023/04/27 04:38:04;;;;;;;5.82;2.90;;;;;;;5.42;59.48;100059.84;4486947;31;20156;-89
2023/04/27 04:40:30;;;;;;;8.73;2.47;;;;;;;5.74;59.50;100058.78;4487037;31;20120;-89
2023/04/27 04:42:55;;;;;;;4.62;2.30;;;;;;;5.86;59.51;100058.66;4471285;31;20147;-89
2023/04/27 04:45:21;;;;;;;4.72;2.50;;;;;;;5.68;59.50;100062.28;4484213;31;20385;-89
2023/04/27 04:47:48;;;;;;;5.68;2.17;;;;;;;5.99;59.52;100059.47;4484265;32;20492;-89
2023/04/27 04:50:13;;;;;;;4.68;2.20;;;;;;;5.76;59.50;100057.03;4463607;31;20464;-88
2023/04/27 04:52:39;;;;;;;5.10;2.30;;;;;;;6.08;59.53;100059.38;4489183;31;22343;-89
2023/04/27 04:55:05;;;;;;;4.53;2.55;;;;;;;6.28;59.54;100056.63;4471278;32;20159;-89
2023/04/27 04:57:30;;;;;;;4.90;2.22;;;;;;;6.42;59.54;100060.78;4465876;32;20149;-88
2023/04/27 04:59:56;;;;;;;7.07;2.53;;;;;;;6.66;59.56;100064.84;4473859;32;20109;-88
2023/04/27 05:02:21;;;;;;;8.40;2.28;;;;;;;6.90;59.57;100062.84;4481643;31;20115;-88
2023/04/27 05:04:47;;;;;;;4.70;2.12;;;;;;;7.04;59.58;100056.59;4470930;32;20190;-90
2023/04/27 05:07:12;;;;;;;6.15;2.30;;;;;;;6.80;59.56;100061.22;4465944;32;20151;-87
2023/04/27 05:09:38;;;;;;;3.15;2.05;;;;;;;7.13;59.58;100060.81;4457881;32;20472;-89
2023/04/27 05:12:03;;;;;;;5.57;2.20;;;;;;;7.44;59.60;100056.06;4481327;31;20099;-89
2023/04/27 05:14:29;;;;;;;3.40;1.85;;;;;;;7.49;59.60;100053.41;4486289;31;20126;-89
2023/04/27 05:16:54;;;;;;;3.50;1.77;;;;;;;7.31;59.59;100062.28;4483334;32;23472;-89
2023/04/27 05:19:20;;;;;;;3.40;1.90;;;;;;;7.59;59.60;100066.22;4470376;32;20499;-89
2023/04/27 05:21:45;;;;;;;6.10;1.80;;;;;;;7.62;59.61;100063.59;4470138;32;20427;-89
2023/04/27 05:24:14;;;;;;;5.35;2.35;;;;;;;7.96;59.62;100066.50;4470687;32;20156;-89
2023/04/27 05:26:41;;;;;;;3.95;1.85;;;;;;;8.10;59.63;100070.59;4458587;31;20112;-89
2023/04/27 05:29:06;;;;;;;4.97;2.03;;;;;;;8.27;59.64;100068.56;4473825;31;20140;-89
2023/04/27 05:31:32;;;;;;;4.03;1.67;;;;;;;8.40;59.65;100064.06;4465781;31;20468;-88
2023/04/27 05:33:57;;;;;;;5.47;1.75;;;;;;;8.78;59.68;100065.94;4463215;31;20104;-89
2023/04/27 05:36:23;;;;;;;7.18;2.15;;;;;;;9.12;59.70;100063.50;4471087;31;20155;-89
2023/04/27 05:38:48;;;;;;;4.05;2.03;;;;;;;9.17;59.69;100064.25;4485900;31;23418;-89
2023/04/27 05:41:13;;;;;;;8.70;3.20;;;;;;;9.27;59.70;100065.78;4487066;31;20147;-90
2023/04/27 05:43:39;;;;;;;6.12;2.20;;;;;;;9.27;59.71;100067.53;4471798;32;20108;-89
2023/04/27 05:46:04;;;;;;;6.10;2.15;;;;;;;9.23;59.70;100077.13;4480493;31;20168;-89
2023/04/27 05:48:30;;;;;;;3.97;1.95;;;;;;;9.54;59.71;100070.38;4484934;31;20494;-89
2023/04/27 05:51:02;;;;;;;4.12;1.67;;;;;;;9.75;59.73;100068.16;4483960;32;20134;-89
2023/04/27 05:53:28;;;;;;;5.10;2.10;;;;;;;9.95;59.74;100078.09;4486513;31;20088;-89
2023/04/27 05:55:54;;;;;;;6.00;2.00;;;;;;;10.17;59.75;100076.66;4472357;32;20468;-89
2023/04/27 05:58:19;;;;;;;4.97;1.95;;;;;;;10.58;59.78;100080.81;4473852;31;20104;-90
2023/04/27 06:00:45;;;;;;;9.75;1.90;;;;;;;10.66;59.78;100078.88;4489569;31;20411;-89
2023/04/27 06:03:10;;;;;;;6.37;2.30;;;;;;;10.64;59.78;100085.84;4457751;32;20101;-89
2023/04/27 06:05:36;;;;;;;3.50;1.62;;;;;;;10.87;59.79;100080.03;4467667;31;20150;-88
2023/04/27 06:08:01;;;;;;;4.28;2.33;;;;;;;11.01;59.80;100082.25;4483340;31;20130;-91
2023/04/27 06:10:27;;;;;;;4.60;2.65;;;;;;;11.21;59.81;100085.13;4458720;31;20134;-87
2023/04/27 06:12:53;;;;;;;4.47;1.98;;;;;;;11.46;59.83;100076.59;4485312;31;20704;-85
2023/04/27 06:15:18;;;;;;;11.18;2.30;;;;;;;11.54;59.84;100079.81;4485644;31;20130;-88
2023/04/27 06:17:44;;;;;;;4.43;1.65;;;;;;;11.68;59.83;100081.09;4472345;31;20186;-88
2023/04/27 06:20:10;;;;;;;4.03;1.50;;;;;;;11.83;59.85;100076.31;4483037;32;20421;-90
2023/04/27 06:22:36;;;;;;;7.30;1.73;;;;;;;11.56;59.83;100084.06;4480760;31;20096;-89
2023/04/27 06:25:02;;;;;;;6.15;1.73;;;;;;;11.68;59.84;100085.47;4464788;31;20138;-86
2023/04/27 06:27:28;;;;;;;4.07;1.70;;;;;;;11.99;59.86;100083.59;4496578;31;20120;-86
2023/04/27 06:29:57;;;;;;;5.55;1.60;;;;;;;12.14;59.86;100077.03;4470267;32;20115;-92
2023/04/27 06:32:24;;;;;;;5.57;1.80;;;;;;;12.34;59.87;100073.78;4481069;32;20079;-89
2023/04/27 06:34:50;;;;;;;4.90;2.15;;;;;;;12.56;59.89;100077.34;4473675;31;20217;-86
2023/04/27 06:37:16;;;;;;;11.48;1.87;;;;;;;12.74;59.90;100075.81;4495653;31;20096;-86
2023/04/27 06:39:42;;;;;;;5.30;1.45;;;;;;;12.81;59.90;100066.88;4484088;31;20118;-86
2023/04/27 06:43:08;;;;;;;3.87;1.37;;;;;;;12.93;59.90;100062.09;4483899;32;20092;-91
2023/04/27 06:45:33;;;;;;;2.30;1.20;;;;;;;13.18;59.93;100066.41;4469662;31;20153;-90
2023/04/27 06:47:59;;;;;;;2.92;1.20;;;;;;;13.64;59.95;100077.72;4485855;31;20093;-90
2023/04/27 06:50:36;;;;;;;4.57;1.45;;;;;;;13.69;59.95;100073.12;4474913;31;20122;-92
2023/04/27 07:00:15;;;;;;;2.30;1.37;;;;;;;14.21;59.98;100084.13;4423078;32;20102;-93
2023/04/27 07:02:40;;;;;;;2.83;0.77;;;;;;;14.09;59.98;100090.72;4406729;32;20070;-88
2023/04/27 07:11:57;;;;;;;7.68;1.05;;;;;;;14.14;59.97;100090.53;4365156;32;20143;-90
2023/04/27 07:14:35;;;;;;;3.42;1.15;;;;;;;14.24;59.97;100078.78;4364863;32;20085;-94
2023/04/27 07:47:46;;;;;;;3.33;1.23;;;;;;;16.37;60.09;100069.84;4253624;33;20151;-93
2023/04/27 07:50:13;;;;;;;2.80;1.40;;;;;;;15.81;60.07;100073.47;4265839;33;20109;-91
2023/04/27 07:52:39;;;;;;;4.22;1.10;;;;;;;15.51;60.05;100087.13;4312569;33;20114;-93
2023/04/27 07:55:36;;;;;;;4.45;1.25;;;;;;;15.57;60.06;100089.44;4336944;33;20119;-90
2023/04/27 07:58:03;;;;;;;2.35;1.00;;;;;;;15.43;60.05;100086.62;4364933;32;20118;-90
2023/04/27 08:00:31;;;;;;;4.35;1.42;;;;;;;15.63;60.06;100089.22;4362581;32;20091;-90
2023/04/27 08:02:57;;;;;;;2.15;1.23;;;;;;;15.50;60.05;100084.56;4337718;32;20465;-91
2023/04/27 08:05:22;;;;;;;3.47;0.90;;;;;;;15.45;60.04;100090.03;4343722;33;20146;-88
2023/04/27 08:08:54;;;;;;;6.45;1.08;;;;;;;15.63;60.06;100083.09;4358546;32;20126;-93
2023/04/27 08:11:20;;;;;;;2.35;1.00;;;;;;;15.45;60.04;100079.53;4334721;33;20084;-91
2023/04/27 08:13:55;;;;;;;3.15;1.00;;;;;;;15.70;60.07;100081.03;4342232;33;20126;-91
2023/04/27 08:16:27;;;;;;;3.45;1.15;;;;;;;15.31;60.04;100085.41;4346557;33;20135;-90
2023/04/27 08:18:52;;;;;;;5.78;1.15;;;;;;;15.23;60.04;100089.31;4335389;32;20129;-95
2023/04/27 08:21:18;;;;;;;3.78;0.90;;;;;;;15.06;60.03;100095.31;4339812;32;20096;-91
2023/04/27 08:24:38;;;;;;;;;;;;;;;;;;;;;
2023/04/27 08:27:42;;;;;;;4.60;1.12;;;;;;;15.15;60.03;100087.06;4358251;32;37126;-93
2023/04/27 08:30:28;;;;;;;5.60;1.02;;;;;;;15.03;60.03;100096.31;4300120;33;20094;-90
2023/04/27 08:32:56;;;;;;;2.60;0.98;;;;;;;14.83;60.01;100101.56;4273925;33;20122;-90
2023/04/27 08:35:21;;;;;;;4.45;1.00;;;;;;;14.74;60.01;100089.75;4320640;32;20103;-91
2023/04/27 08:37:47;;;;;;;7.50;1.37;;;;;;;14.84;60.01;100100.66;4334830;32;20507;-90
2023/04/27 08:40:12;;;;;;;5.50;1.37;;;;;;;14.85;60.01;100102.34;4319314;32;23863;-91
2023/04/27 08:42:39;;;;;;;8.10;1.10;;;;;;;14.66;60.01;100099.69;4337326;32;20098;-91
2023/04/27 08:45:07;;;;;;;3.25;1.10;;;;;;;14.91;60.01;100094.25;4335865;32;20447;-92
2023/04/27 08:47:36;;;;;;;3.95;0.82;;;;;;;15.28;60.04;100095.19;4340012;32;20102;-92
2023/04/27 08:50:02;;;;;;;2.50;0.95;;;;;;;15.79;60.07;100091.09;4324302;33;20503;-90
2023/04/27 08:52:28;;;;;;;4.32;1.55;;;;;;;16.08;60.09;100092.28;4327307;33;20138;-90
2023/04/27 08:54:53;;;;;;;2.35;0.85;;;;;;;16.37;60.10;100088.25;4346711;33;20156;-91
2023/04/27 08:57:18;;;;;;;1.45;0.90;;;;;;;16.64;60.12;100086.81;4349555;32;20110;-90
2023/04/27 08:59:44;;;;;;;2.95;1.25;;;;;;;16.70;60.12;100086.53;4324676;33;20136;-91
2023/04/27 09:02:19;;;;;;;5.90;1.27;;;;;;;16.94;60.13;100070.41;4310597;33;20174;-91
2023/04/27 09:04:47;;;;;;;2.28;0.80;;;;;;;17.17;60.15;100070.03;4337014;33;20125;-95
2023/04/27 09:07:16;;;;;;;0.68;0.50;;;;;;;17.24;60.15;100063.50;4335664;33;20076;-89
2023/04/27 09:09:43;;;;;;;2.83;1.10;;;;;;;17.27;60.15;100065.97;4330678;33;20734;-91
2023/04/27 09:12:19;;;;;;;6.07;1.33;;;;;;;17.08;60.14;100060.00;4336634;32;20091;-91
2023/04/27 09:15:23;;;;;;;4.20;1.10;;;;;;;17.06;60.13;100072.41;4338488;32;20083;-91
2023/04/27 09:22:01;;;;;;;4.35;1.12;;;;;;;17.65;60.17;100058.56;4280353;33;20467;-91
2023/04/27 09:24:27;;;;;;;;;;;;;;;17.46;60.17;100061.37;4333732;33;20100;-93
2023/04/27 09:26:53;;;;;;;2.62;1.50;;;;;;;17.55;60.17;100056.56;4343984;32;20035;-91
2023/04/27 09:29:18;;;;;;;4.37;1.15;;;;;;;17.63;60.17;100052.56;4337435;32;20125;-91
2023/04/27 09:31:44;;;;;;;4.65;1.05;;;;;;;17.75;60.17;100051.06;4327737;32;20115;-92
2023/04/27 09:34:15;;;;;;;2.80;1.55;;;;;;;17.87;60.18;100058.25;4331806;33;20886;-93
2023/04/27 09:36:40;;;;;;;3.62;1.20;;;;;;;17.71;60.18;100049.50;4345706;32;20096;-92
2023/04/27 09:39:06;;;;;;;1.83;1.00;;;;;;;17.13;60.14;100055.34;4350084;32;20376;-93
2023/04/27 09:41:31;;;;;;;6.22;1.30;;;;;;;17.19;60.14;100052.38;4326965;33;20177;-93
2023/04/27 09:43:57;;;;;;;6.35;1.20;;;;;;;16.91;60.13;100058.28;4329693;32;20160;-93
2023/04/27 09:46:44;;;;;;;1.95;1.00;;;;;;;16.73;60.12;100046.09;4329599;33;20127;-93
2023/04/27 09:49:10;;;;;;;4.45;1.20;;;;;;;16.37;60.10;100057.56;4352104;33;20514;-92
2023/04/27 09:52:03;;;;;;;;;;;;;;;;;;;;;
2023/04/27 09:54:53;;;;;;;3.15;1.10;;;;;;;16.16;60.10;100051.63;4333749;32;36772;-96
2023/04/27 09:57:57;;;;;;;4.57;1.30;;;;;;;16.16;60.09;100054.22;4337626;33;20170;-93
2023/04/27 10:01:07;;;;;;;3.53;1.40;;;;;;;16.66;60.12;100042.94;4331436;33;20130;-93
2023/04/27 10:04:13;;;;;;;2.90;1.10;;;;;;;17.36;60.15;100038.31;4322261;32;20429;-93
2023/04/27 10:07:06;;;;;;;2.25;0.77;;;;;;;17.76;60.17;100023.78;4345389;33;20162;-91
2023/04/27 10:10:02;;;;;;;2.37;1.00;;;;;;;17.45;60.17;100030.72;4345766;32;20103;-94
2023/04/27 10:15:28;;;;;;;;;;;;;;;;;;;;;
2023/04/27 10:18:49;;;;;;;4.93;1.40;;;;;;;17.81;60.18;100029.63;4350153;32;35425;-93
2023/04/27 10:21:55;;;;;;;;;;;;;;;;;;;;;
2023/04/27 10:24:47;;;;;;;2.47;1.27;;;;;;;18.64;60.23;100025.62;4340763;32;36557;-93
2023/04/27 10:27:51;;;;;;;3.10;1.20;;;;;;;19.11;60.25;100017.41;4348481;32;20111;-94
2023/04/27 10:44:15;;;;;;;3.80;1.50;;;;;;;17.61;60.18;100028.09;4310710;33;20114;-94
2023/04/27 10:50:45;;;;;;;6.37;1.10;;;;;;;18.39;60.21;100027.06;4319048;33;20007;-93
2023/04/27 10:53:14;;;;;;;7.27;1.17;;;;;;;18.80;60.24;100013.19;4306048;33;20099;-93
2023/04/27 10:55:40;;;;;;;4.25;1.12;;;;;;;18.93;60.24;100019.41;4319333;33;20064;-92
2023/04/27 10:58:31;;;;;;;3.45;1.20;;;;;;;18.73;60.23;100027.72;4334945;32;20144;-92
2023/04/27 11:05:44;;;;;;;3.87;1.42;;;;;;;18.47;60.22;100017.88;4324919;32;20131;-95
2023/04/27 11:08:16;;;;;;;3.55;1.70;;;;;;;19.09;60.25;100011.38;4345442;32;20159;-96
2023/04/27 11:11:05;;;;;;;4.12;1.52;;;;;;;19.11;60.25;100012.12;4342596;32;20080;-93
2023/04/27 11:13:32;;;;;;;3.35;1.35;;;;;;;18.68;60.23;100014.78;4361711;32;20779;-90
2023/04/27 11:16:06;;;;;;;5.40;1.60;;;;;;;18.59;60.22;100017.97;4378759;32;20149;-95
2023/04/27 11:18:46;;;;;;;2.90;1.37;;;;;;;18.58;60.23;100010.16;4367958;32;20116;-96
2023/04/27 11:22:02;;;;;;;2.97;1.10;;;;;;;18.18;60.20;100019.59;4358529;32;20166;-92
2023/04/27 11:28:17;;;;;;;;;;;;;;;;;;;;;
2023/04/27 11:31:01;;;;;;;4.03;1.52;;;;;;;17.89;60.18;100019.50;4276821;33;37368;-93
2023/04/27 11:36:20;;;;;;;5.32;1.20;;;;;;;17.68;60.17;100026.00;4323796;33;20092;-95
2023/04/27 11:45:26;;;;;;;6.05;1.67;;;;;;;17.72;60.18;100028.38;4379555;27;20069;-96
2023/04/27 11:47:54;;;;;;;2.95;1.48;;;;;;;17.69;60.18;100030.31;4339736;32;20128;-96
2023/04/27 11:50:22;;;;;;;3.55;1.30;;;;;;;17.43;60.16;100029.12;4329846;33;20136;-92
2023/04/27 11:52:48;;;;;;;5.07;1.60;;;;;;;17.21;60.16;100029.47;4331009;32;20110;-92
2023/04/27 11:55:14;;;;;;;5.50;1.37;;;;;;;17.21;60.15;100020.72;4331574;32;20115;-94
2023/04/27 11:57:40;;;;;;;8.35;1.90;;;;;;;17.44;60.16;100020.28;4335560;32;20106;-92
2023/04/27 12:00:09;;;;;;;2.22;1.25;;;;;;;17.42;60.17;100025.66;4347632;32;20162;-91
2023/04/27 12:02:35;;;;;;;2.40;1.30;;;;;;;17.57;60.17;100023.94;4345323;32;20961;-93
2023/04/27 12:05:01;;;;;;;6.62;1.90;;;;;;;17.95;60.19;100015.66;4329361;32;20119;-93
2023/04/27 12:07:26;;;;;;;3.00;1.30;;;;;;;18.06;60.21;100019.38;4337179;32;20457;-91
2023/04/27 12:09:52;;;;;;;6.22;1.48;;;;;;;17.95;60.19;100027.03;4347784;32;20163;-91
2023/04/27 12:12:20;;;;;;;3.75;1.05;;;;;;;17.80;60.19;100027.94;4338191;32;143229;-92
2023/04/27 12:14:46;;;;;;;8.45;1.30;;;;;;;18.13;60.20;100017.22;4333869;33;20118;-91
2023/04/27 12:17:11;;;;;;;7.82;1.55;;;;;;;18.23;60.21;100021.03;4332727;32;25245;-91
2023/04/27 12:19:36;;;;;;;4.20;1.42;;;;;;;17.98;60.19;100018.09;4348230;32;20099;-91
2023/04/27 12:22:02;;;;;;;5.10;1.40;;;;;;;18.00;60.20;100009.22;4335545;32;20110;-92
2023/04/27 12:24:27;;;;;;;4.68;1.25;;;;;;;18.44;60.22;100010.13;4355904;32;20099;-92
2023/04/27 12:26:53;;;;;;;2.60;1.05;;;;;;;18.34;60.21;100005.41;4357420;32;20645;-92
2023/04/27 12:29:19;;;;;;;2.12;0.95;;;;;;;18.33;60.21;100008.16;4351567;32;20475;-91
2023/04/27 12:31:44;;;;;;;3.37;1.20;;;;;;;17.62;60.18;100014.00;4353177;32;20124;-91
2023/04/27 12:34:10;;;;;;;3.08;1.17;;;;;;;17.75;60.19;100014.19;4342147;32;20087;-91
2023/04/27 12:36:35;;;;;;;6.87;1.52;;;;;;;17.87;60.19;100002.94;4373732;32;20368;-93
2023/04/27 12:39:17;;;;;;;6.07;1.05;;;;;;;18.23;60.21;100009.66;4345782;33;20489;-88
2023/04/27 12:41:43;;;;;;;4.62;1.20;;;;;;;17.78;60.18;100011.38;4347102;32;20161;-91
2023/04/27 12:44:09;;;;;;;4.78;1.00;;;;;;;17.56;60.17;100014.34;4354576;32;20083;-92
2023/04/27 12:47:06;;;;;;;2.33;1.00;;;;;;;17.79;60.19;100005.19;4349836;32;20116;-92
2023/04/27 12:49:32;;;;;;;4.22;1.20;;;;;;;17.81;60.19;100013.84;4350166;32;20111;-92
2023/04/27 12:52:08;;;;;;;5.25;1.98;;;;;;;17.45;60.17;100014.94;4338003;32;20099;-94
2023/04/27 12:54:34;;;;;;;5.07;1.35;;;;;;;17.64;60.18;100016.56;4337922;32;20107;-92
2023/04/27 12:57:20;;;;;;;6.47;1.58;;;;;;;17.81;60.19;100011.22;4337969;32;20126;-92
2023/04/27 12:59:48;;;;;;;2.05;1.10;;;;;;;17.82;60.18;100012.91;4338377;32;20119;-93
2023/04/27 13:06:50;;;;;;;;;;;;;;;;;;;;;
2023/04/27 13:14:49;;;;;;;1.52;0.85;;;;;;;17.83;60.18;100026.91;4600219;27;20107;-91
2023/04/27 13:20:58;;;;;;;6.37;1.37;;;;;;;17.47;60.17;100014.84;4284516;33;20142;-93
2023/04/27 13:27:27;;;;;;;2.45;1.30;;;;;;;17.18;60.15;100016.47;4228162;33;20209;-92
2023/04/27 13:30:03;;;;;;;1.87;1.40;;;;;;;17.30;60.17;100017.59;4247985;33;20477;-89
2023/04/27 13:38:50;;;;;;;3.47;1.50;;;;;;;17.40;60.17;100010.88;4335092;33;20122;-91
2023/04/27 13:41:18;;;;;;;3.97;1.48;;;;;;;17.31;60.16;100009.63;4340558;32;20121;-90